sensor_id;sensor_type;location;lat;lon;timestamp;temperature;humidity
41116;DHT22;26861;51.824;4.682;2022-12-18T00:01:42;10.70;54.30
41116;DHT22;26861;51.824;4.682;2022-12-18T00:04:22;10.80;54.30
41116;DHT22;26861;51.824;4.682;2022-12-18T00:06:48;10.70;54.10
41116;DHT22;26861;51.824;4.682;2022-12-18T00:11:40;10.70;53.60
41116;DHT22;26861;51.824;4.682;2022-12-18T00:16:31;10.80;53.60
41116;DHT22;26861;51.824;4.682;2022-12-18T00:18:59;10.70;54.20
41116;DHT22;26861;51.824;4.682;2022-12-18T00:21:26;10.70;54.20
41116;DHT22;26861;51.824;4.682;2022-12-18T00:23:52;10.80;54.10
41116;DHT22;26861;51.824;4.682;2022-12-18T00:26:38;10.70;54.10
41116;DHT22;26861;51.824;4.682;2022-12-18T00:29:08;10.70;54.10
41116;DHT22;26861;51.824;4.682;2022-12-18T00:31:35;10.70;54.10
41116;DHT22;26861;51.824;4.682;2022-12-18T00:34:01;10.70;54.30
41116;DHT22;26861;51.824;4.682;2022-12-18T00:36:31;10.70;54.00
41116;DHT22;26861;51.824;4.682;2022-12-18T00:38:58;10.70;54.10
41116;DHT22;26861;51.824;4.682;2022-12-18T00:41:24;10.60;53.90
41116;DHT22;26861;51.824;4.682;2022-12-18T00:44:11;10.70;53.60
41116;DHT22;26861;51.824;4.682;2022-12-18T00:46:38;10.60;54.00
41116;DHT22;26861;51.824;4.682;2022-12-18T00:49:04;10.60;54.00
41116;DHT22;26861;51.824;4.682;2022-12-18T00:51:30;10.60;54.00
41116;DHT22;26861;51.824;4.682;2022-12-18T00:53:56;10.60;54.10
41116;DHT22;26861;51.824;4.682;2022-12-18T00:56:21;10.50;54.10
41116;DHT22;26861;51.824;4.682;2022-12-18T00:58:47;10.60;54.10
41116;DHT22;26861;51.824;4.682;2022-12-18T01:01:13;10.60;54.20
41116;DHT22;26861;51.824;4.682;2022-12-18T01:03:39;10.60;54.10
41116;DHT22;26861;51.824;4.682;2022-12-18T01:06:09;10.60;54.20
41116;DHT22;26861;51.824;4.682;2022-12-18T01:08:35;10.50;54.10
41116;DHT22;26861;51.824;4.682;2022-12-18T01:11:06;10.50;54.00
41116;DHT22;26861;51.824;4.682;2022-12-18T01:13:32;10.50;54.00
41116;DHT22;26861;51.824;4.682;2022-12-18T01:18:24;10.50;53.60
41116;DHT22;26861;51.824;4.682;2022-12-18T01:20:49;10.50;54.30
41116;DHT22;26861;51.824;4.682;2022-12-18T01:23:15;10.50;54.20
41116;DHT22;26861;51.824;4.682;2022-12-18T01:25:41;10.50;72.50
41116;DHT22;26861;51.824;4.682;2022-12-18T01:28:06;10.50;54.10
41116;DHT22;26861;51.824;4.682;2022-12-18T01:32:58;10.40;72.30
41116;DHT22;26861;51.824;4.682;2022-12-18T01:35:23;10.50;54.10
41116;DHT22;26861;51.824;4.682;2022-12-18T01:37:49;10.40;54.10
41116;DHT22;26861;51.824;4.682;2022-12-18T01:40:14;10.40;54.10
41116;DHT22;26861;51.824;4.682;2022-12-18T01:42:40;10.40;54.10
41116;DHT22;26861;51.824;4.682;2022-12-18T01:50:07;10.40;54.20
41116;DHT22;26861;51.824;4.682;2022-12-18T01:52:34;10.30;72.30
41116;DHT22;26861;51.824;4.682;2022-12-18T01:55:02;10.30;54.20
41116;DHT22;26861;51.824;4.682;2022-12-18T01:57:28;10.30;54.80
41116;DHT22;26861;51.824;4.682;2022-12-18T02:00:00;10.30;54.10
41116;DHT22;26861;51.824;4.682;2022-12-18T02:02:28;10.30;54.80
41116;DHT22;26861;51.824;4.682;2022-12-18T02:04:55;10.40;54.30
41116;DHT22;26861;51.824;4.682;2022-12-18T02:07:32;10.30;54.50
41116;DHT22;26861;51.824;4.682;2022-12-18T02:10:18;10.30;54.40
41116;DHT22;26861;51.824;4.682;2022-12-18T02:15:43;10.30;54.30
41116;DHT22;26861;51.824;4.682;2022-12-18T02:18:20;10.20;54.20
41116;DHT22;26861;51.824;4.682;2022-12-18T02:21:16;10.30;54.40
41116;DHT22;26861;51.824;4.682;2022-12-18T02:24:11;10.30;54.30
41116;DHT22;26861;51.824;4.682;2022-12-18T02:26:38;10.30;54.30
41116;DHT22;26861;51.824;4.682;2022-12-18T02:29:13;10.20;54.30
41116;DHT22;26861;51.824;4.682;2022-12-18T02:31:45;10.20;54.30
41116;DHT22;26861;51.824;4.682;2022-12-18T02:34:12;10.20;54.30
41116;DHT22;26861;51.824;4.682;2022-12-18T02:36:40;10.10;54.40
41116;DHT22;26861;51.824;4.682;2022-12-18T02:39:09;10.20;54.30
41116;DHT22;26861;51.824;4.682;2022-12-18T02:41:36;10.20;54.30
41116;DHT22;26861;51.824;4.682;2022-12-18T02:44:09;10.20;54.30
41116;DHT22;26861;51.824;4.682;2022-12-18T02:46:39;10.20;54.30
41116;DHT22;26861;51.824;4.682;2022-12-18T02:54:49;10.10;54.30
41116;DHT22;26861;51.824;4.682;2022-12-18T02:57:33;10.10;54.30
41116;DHT22;26861;51.824;4.682;2022-12-18T03:05:16;10.10;54.40
41116;DHT22;26861;51.824;4.682;2022-12-18T03:07:58;10.00;54.30
41116;DHT22;26861;51.824;4.682;2022-12-18T03:10:28;10.00;54.30
41116;DHT22;26861;51.824;4.682;2022-12-18T03:13:20;10.00;54.30
41116;DHT22;26861;51.824;4.682;2022-12-18T03:15:47;10.10;54.50
41116;DHT22;26861;51.824;4.682;2022-12-18T03:21:03;9.90;54.50
41116;DHT22;26861;51.824;4.682;2022-12-18T03:23:34;9.90;54.50
41116;DHT22;26861;51.824;4.682;2022-12-18T03:26:04;10.10;54.60
41116;DHT22;26861;51.824;4.682;2022-12-18T03:28:30;9.90;54.50
41116;DHT22;26861;51.824;4.682;2022-12-18T03:30:58;9.90;54.50
41116;DHT22;26861;51.824;4.682;2022-12-18T03:35:54;9.90;54.60
41116;DHT22;26861;51.824;4.682;2022-12-18T03:38:20;9.90;54.50
41116;DHT22;26861;51.824;4.682;2022-12-18T03:41:25;10.00;54.50
41116;DHT22;26861;51.824;4.682;2022-12-18T03:47:05;9.80;54.40
41116;DHT22;26861;51.824;4.682;2022-12-18T03:49:34;9.90;54.50
41116;DHT22;26861;51.824;4.682;2022-12-18T03:52:12;9.80;54.50
41116;DHT22;26861;51.824;4.682;2022-12-18T03:54:41;9.90;54.60
41116;DHT22;26861;51.824;4.682;2022-12-18T03:57:11;9.80;54.40
41116;DHT22;26861;51.824;4.682;2022-12-18T03:59:39;9.80;54.50
41116;DHT22;26861;51.824;4.682;2022-12-18T04:02:06;9.80;54.50
41116;DHT22;26861;51.824;4.682;2022-12-18T04:04:34;9.80;54.50
41116;DHT22;26861;51.824;4.682;2022-12-18T04:07:01;9.70;54.50
41116;DHT22;26861;51.824;4.682;2022-12-18T04:09:28;9.80;54.50
41116;DHT22;26861;51.824;4.682;2022-12-18T04:11:55;9.70;54.60
41116;DHT22;26861;51.824;4.682;2022-12-18T04:14:20;9.70;54.50
41116;DHT22;26861;51.824;4.682;2022-12-18T04:16:46;9.70;54.50
41116;DHT22;26861;51.824;4.682;2022-12-18T04:19:12;9.70;73.00
41116;DHT22;26861;51.824;4.682;2022-12-18T04:21:37;9.70;54.60
41116;DHT22;26861;51.824;4.682;2022-12-18T04:24:03;9.80;54.60
41116;DHT22;26861;51.824;4.682;2022-12-18T04:26:29;9.70;54.60
41116;DHT22;26861;51.824;4.682;2022-12-18T04:28:54;9.50;54.30
41116;DHT22;26861;51.824;4.682;2022-12-18T04:31:20;9.60;54.50
41116;DHT22;26861;51.824;4.682;2022-12-18T04:33:45;9.60;54.50
41116;DHT22;26861;51.824;4.682;2022-12-18T04:36:11;9.70;54.60
41116;DHT22;26861;51.824;4.682;2022-12-18T04:38:37;9.60;54.50
41116;DHT22;26861;51.824;4.682;2022-12-18T04:41:03;9.60;54.50
41116;DHT22;26861;51.824;4.682;2022-12-18T04:43:29;9.60;54.70
41116;DHT22;26861;51.824;4.682;2022-12-18T04:46:04;9.60;55.10
41116;DHT22;26861;51.824;4.682;2022-12-18T04:48:30;9.60;54.50
41116;DHT22;26861;51.824;4.682;2022-12-18T04:50:56;9.60;54.50
41116;DHT22;26861;51.824;4.682;2022-12-18T04:53:22;9.50;54.50
41116;DHT22;26861;51.824;4.682;2022-12-18T04:55:47;9.50;54.40
41116;DHT22;26861;51.824;4.682;2022-12-18T04:58:13;9.50;55.10
41116;DHT22;26861;51.824;4.682;2022-12-18T05:00:38;9.40;54.40
41116;DHT22;26861;51.824;4.682;2022-12-18T05:03:04;9.40;54.60
41116;DHT22;26861;51.824;4.682;2022-12-18T05:05:30;9.50;54.50
41116;DHT22;26861;51.824;4.682;2022-12-18T05:07:55;8.50;54.00
41116;DHT22;26861;51.824;4.682;2022-12-18T05:10:21;9.40;54.40
41116;DHT22;26861;51.824;4.682;2022-12-18T05:12:47;9.60;54.60
41116;DHT22;26861;51.824;4.682;2022-12-18T05:15:30;9.40;54.40
41116;DHT22;26861;51.824;4.682;2022-12-18T05:17:57;9.40;54.40
41116;DHT22;26861;51.824;4.682;2022-12-18T05:20:23;9.40;54.50
41116;DHT22;26861;51.824;4.682;2022-12-18T05:22:50;9.40;54.30
41116;DHT22;26861;51.824;4.682;2022-12-18T05:25:16;9.60;54.50
41116;DHT22;26861;51.824;4.682;2022-12-18T05:27:42;9.30;54.30
41116;DHT22;26861;51.824;4.682;2022-12-18T05:30:08;9.40;54.50
41116;DHT22;26861;51.824;4.682;2022-12-18T05:32:34;9.40;54.40
41116;DHT22;26861;51.824;4.682;2022-12-18T05:35:00;9.30;54.40
41116;DHT22;26861;51.824;4.682;2022-12-18T05:37:25;9.60;54.60
41116;DHT22;26861;51.824;4.682;2022-12-18T05:39:51;9.40;54.50
41116;DHT22;26861;51.824;4.682;2022-12-18T05:42:16;9.30;54.60
41116;DHT22;26861;51.824;4.682;2022-12-18T05:44:43;9.40;54.60
41116;DHT22;26861;51.824;4.682;2022-12-18T05:47:09;9.50;54.60
41116;DHT22;26861;51.824;4.682;2022-12-18T05:49:34;9.60;54.60
41116;DHT22;26861;51.824;4.682;2022-12-18T05:52:00;9.30;54.30
41116;DHT22;26861;51.824;4.682;2022-12-18T05:54:27;9.50;54.40
41116;DHT22;26861;51.824;4.682;2022-12-18T05:56:53;9.30;54.50
41116;DHT22;26861;51.824;4.682;2022-12-18T05:59:19;9.30;54.20
41116;DHT22;26861;51.824;4.682;2022-12-18T06:01:45;9.40;54.30
41116;DHT22;26861;51.824;4.682;2022-12-18T06:04:11;9.30;54.20
41116;DHT22;26861;51.824;4.682;2022-12-18T06:06:37;9.40;54.30
41116;DHT22;26861;51.824;4.682;2022-12-18T06:09:03;9.50;54.40
41116;DHT22;26861;51.824;4.682;2022-12-18T06:11:36;9.30;73.70
41116;DHT22;26861;51.824;4.682;2022-12-18T06:14:03;9.20;54.30
41116;DHT22;26861;51.824;4.682;2022-12-18T06:16:29;9.20;54.30
41116;DHT22;26861;51.824;4.682;2022-12-18T06:19:03;9.30;54.50
41116;DHT22;26861;51.824;4.682;2022-12-18T06:21:30;9.30;54.40
41116;DHT22;26861;51.824;4.682;2022-12-18T06:23:56;9.20;54.20
41116;DHT22;26861;51.824;4.682;2022-12-18T06:26:22;9.60;54.50
41116;DHT22;26861;51.824;4.682;2022-12-18T06:28:47;9.80;54.80
41116;DHT22;26861;51.824;4.682;2022-12-18T06:31:13;9.20;54.50
41116;DHT22;26861;51.824;4.682;2022-12-18T06:33:39;9.20;72.90
41116;DHT22;26861;51.824;4.682;2022-12-18T06:36:10;9.10;55.00
41116;DHT22;26861;51.824;4.682;2022-12-18T06:38:39;9.20;54.30
41116;DHT22;26861;51.824;4.682;2022-12-18T06:41:10;9.40;54.40
41116;DHT22;26861;51.824;4.682;2022-12-18T06:43:36;9.20;54.40
41116;DHT22;26861;51.824;4.682;2022-12-18T06:46:04;9.20;54.40
41116;DHT22;26861;51.824;4.682;2022-12-18T06:48:30;9.20;54.30
41116;DHT22;26861;51.824;4.682;2022-12-18T06:50:56;9.10;54.30
41116;DHT22;26861;51.824;4.682;2022-12-18T06:53:21;9.10;54.30
41116;DHT22;26861;51.824;4.682;2022-12-18T06:55:47;9.10;54.40
41116;DHT22;26861;51.824;4.682;2022-12-18T06:58:13;8.90;54.30
41116;DHT22;26861;51.824;4.682;2022-12-18T07:00:38;9.00;54.50
41116;DHT22;26861;51.824;4.682;2022-12-18T07:03:04;9.00;55.00
41116;DHT22;26861;51.824;4.682;2022-12-18T07:05:29;9.00;54.60
41116;DHT22;26861;51.824;4.682;2022-12-18T07:07:55;8.90;54.30
41116;DHT22;26861;51.824;4.682;2022-12-18T07:10:21;9.00;54.40
41116;DHT22;26861;51.824;4.682;2022-12-18T07:12:46;9.00;54.40
41116;DHT22;26861;51.824;4.682;2022-12-18T07:15:12;9.00;54.50
41116;DHT22;26861;51.824;4.682;2022-12-18T07:20:04;9.00;53.80
41116;DHT22;26861;51.824;4.682;2022-12-18T07:22:29;9.00;54.40
41116;DHT22;26861;51.824;4.682;2022-12-18T07:24:55;9.30;60.30
41116;DHT22;26861;51.824;4.682;2022-12-18T07:27:21;8.90;54.60
41116;DHT22;26861;51.824;4.682;2022-12-18T07:29:47;8.90;54.30
41116;DHT22;26861;51.824;4.682;2022-12-18T07:32:13;9.00;54.60
41116;DHT22;26861;51.824;4.682;2022-12-18T07:37:05;8.90;53.90
41116;DHT22;26861;51.824;4.682;2022-12-18T07:39:30;8.90;54.40
41116;DHT22;26861;51.824;4.682;2022-12-18T07:41:56;8.90;54.20
41116;DHT22;26861;51.824;4.682;2022-12-18T07:44:40;8.80;54.30
41116;DHT22;26861;51.824;4.682;2022-12-18T07:47:06;8.80;73.10
41116;DHT22;26861;51.824;4.682;2022-12-18T07:49:31;8.80;54.30
41116;DHT22;26861;51.824;4.682;2022-12-18T07:51:57;8.90;54.60
41116;DHT22;26861;51.824;4.682;2022-12-18T07:54:24;8.90;54.50
41116;DHT22;26861;51.824;4.682;2022-12-18T07:56:50;8.90;73.00
41116;DHT22;26861;51.824;4.682;2022-12-18T07:59:16;8.90;54.40
41116;DHT22;26861;51.824;4.682;2022-12-18T08:01:41;8.70;54.70
41116;DHT22;26861;51.824;4.682;2022-12-18T08:04:07;8.80;54.60
41116;DHT22;26861;51.824;4.682;2022-12-18T08:06:32;8.60;54.20
41116;DHT22;26861;51.824;4.682;2022-12-18T08:08:58;8.70;54.50
41116;DHT22;26861;51.824;4.682;2022-12-18T08:11:26;8.70;54.40
41116;DHT22;26861;51.824;4.682;2022-12-18T08:13:53;8.80;54.50
41116;DHT22;26861;51.824;4.682;2022-12-18T08:16:19;8.60;54.30
41116;DHT22;26861;51.824;4.682;2022-12-18T08:18:45;8.60;54.40
41116;DHT22;26861;51.824;4.682;2022-12-18T08:21:12;8.70;54.50
41116;DHT22;26861;51.824;4.682;2022-12-18T08:23:39;8.70;54.30
41116;DHT22;26861;51.824;4.682;2022-12-18T08:26:05;8.70;54.60
41116;DHT22;26861;51.824;4.682;2022-12-18T08:28:31;8.70;54.60
41116;DHT22;26861;51.824;4.682;2022-12-18T08:30:56;8.70;54.70
41116;DHT22;26861;51.824;4.682;2022-12-18T08:33:22;8.80;54.40
41116;DHT22;26861;51.824;4.682;2022-12-18T08:35:47;8.70;54.70
41116;DHT22;26861;51.824;4.682;2022-12-18T08:38:13;8.70;54.40
41116;DHT22;26861;51.824;4.682;2022-12-18T08:40:39;8.60;54.40
41116;DHT22;26861;51.824;4.682;2022-12-18T08:43:04;8.70;54.40
41116;DHT22;26861;51.824;4.682;2022-12-18T08:45:48;8.60;54.30
41116;DHT22;26861;51.824;4.682;2022-12-18T08:50:40;8.70;53.80
41116;DHT22;26861;51.824;4.682;2022-12-18T08:53:06;8.60;55.10
41116;DHT22;26861;51.824;4.682;2022-12-18T08:55:32;8.70;54.60
41116;DHT22;26861;51.824;4.682;2022-12-18T08:57:57;8.70;54.30
41116;DHT22;26861;51.824;4.682;2022-12-18T09:00:23;8.70;54.60
41116;DHT22;26861;51.824;4.682;2022-12-18T09:02:49;8.70;54.40
41116;DHT22;26861;51.824;4.682;2022-12-18T09:05:14;8.70;55.10
41116;DHT22;26861;51.824;4.682;2022-12-18T09:07:40;8.70;54.40
41116;DHT22;26861;51.824;4.682;2022-12-18T09:10:06;8.70;54.60
41116;DHT22;26861;51.824;4.682;2022-12-18T09:12:31;8.80;54.40
41116;DHT22;26861;51.824;4.682;2022-12-18T09:14:57;8.90;54.60
41116;DHT22;26861;51.824;4.682;2022-12-18T09:17:23;8.70;54.50
41116;DHT22;26861;51.824;4.682;2022-12-18T09:19:48;8.70;54.80
41116;DHT22;26861;51.824;4.682;2022-12-18T09:22:14;8.70;54.90
41116;DHT22;26861;51.824;4.682;2022-12-18T09:24:40;8.70;54.80
41116;DHT22;26861;51.824;4.682;2022-12-18T09:27:05;8.70;54.80
41116;DHT22;26861;51.824;4.682;2022-12-18T09:29:32;8.70;54.80
41116;DHT22;26861;51.824;4.682;2022-12-18T09:31:57;8.80;54.90
41116;DHT22;26861;51.824;4.682;2022-12-18T09:34:23;8.70;55.00
41116;DHT22;26861;51.824;4.682;2022-12-18T09:36:50;8.80;54.90
41116;DHT22;26861;51.824;4.682;2022-12-18T09:39:16;8.80;54.90
41116;DHT22;26861;51.824;4.682;2022-12-18T09:41:50;8.80;54.90
41116;DHT22;26861;51.824;4.682;2022-12-18T09:44:22;8.80;54.90
41116;DHT22;26861;51.824;4.682;2022-12-18T09:47:11;8.80;54.90
41116;DHT22;26861;51.824;4.682;2022-12-18T09:49:39;8.80;54.90
41116;DHT22;26861;51.824;4.682;2022-12-18T09:57:57;8.90;54.80
41116;DHT22;26861;51.824;4.682;2022-12-18T10:00:25;8.90;54.80
41116;DHT22;26861;51.824;4.682;2022-12-18T10:02:59;8.90;54.70
41116;DHT22;26861;51.824;4.682;2022-12-18T10:10:40;8.90;54.90
41116;DHT22;26861;51.824;4.682;2022-12-18T10:21:21;8.90;54.80
41116;DHT22;26861;51.824;4.682;2022-12-18T10:24:02;9.00;54.90
41116;DHT22;26861;51.824;4.682;2022-12-18T10:26:31;8.90;72.90
41116;DHT22;26861;51.824;4.682;2022-12-18T10:28:58;8.90;54.80
41116;DHT22;26861;51.824;4.682;2022-12-18T10:31:24;9.00;55.00
41116;DHT22;26861;51.824;4.682;2022-12-18T10:33:51;9.10;54.90
41116;DHT22;26861;51.824;4.682;2022-12-18T10:36:19;9.00;54.90
41116;DHT22;26861;51.824;4.682;2022-12-18T10:38:45;9.00;54.90
41116;DHT22;26861;51.824;4.682;2022-12-18T10:46:35;9.10;55.00
41116;DHT22;26861;51.824;4.682;2022-12-18T10:49:01;9.00;55.00
41116;DHT22;26861;51.824;4.682;2022-12-18T10:53:59;9.30;55.30
41116;DHT22;26861;51.824;4.682;2022-12-18T10:56:27;9.00;55.00
41116;DHT22;26861;51.824;4.682;2022-12-18T10:59:04;9.10;55.00
41116;DHT22;26861;51.824;4.682;2022-12-18T11:01:49;9.40;55.10
41116;DHT22;26861;51.824;4.682;2022-12-18T11:04:30;9.20;55.10
41116;DHT22;26861;51.824;4.682;2022-12-18T11:07:06;9.10;55.00
41116;DHT22;26861;51.824;4.682;2022-12-18T11:09:36;9.10;55.00
41116;DHT22;26861;51.824;4.682;2022-12-18T11:12:04;9.10;55.00
41116;DHT22;26861;51.824;4.682;2022-12-18T11:14:43;9.10;55.00
41116;DHT22;26861;51.824;4.682;2022-12-18T11:17:19;9.20;73.40
41116;DHT22;26861;51.824;4.682;2022-12-18T11:19:58;9.10;55.00
41116;DHT22;26861;51.824;4.682;2022-12-18T11:22:26;9.20;73.40
41116;DHT22;26861;51.824;4.682;2022-12-18T11:27:26;9.20;55.30
41116;DHT22;26861;51.824;4.682;2022-12-18T11:30:20;9.30;73.60
41116;DHT22;26861;51.824;4.682;2022-12-18T11:33:10;9.20;55.30
41116;DHT22;26861;51.824;4.682;2022-12-18T11:38:10;9.20;55.50
41116;DHT22;26861;51.824;4.682;2022-12-18T11:40:41;9.20;55.50
41116;DHT22;26861;51.824;4.682;2022-12-18T11:43:15;9.30;55.10
41116;DHT22;26861;51.824;4.682;2022-12-18T11:45:46;9.30;55.60
41116;DHT22;26861;51.824;4.682;2022-12-18T11:48:27;9.30;55.50
41116;DHT22;26861;51.824;4.682;2022-12-18T11:50:57;9.70;55.80
41116;DHT22;26861;51.824;4.682;2022-12-18T11:53:26;9.30;55.60
41116;DHT22;26861;51.824;4.682;2022-12-18T11:58:21;9.10;55.60
41116;DHT22;26861;51.824;4.682;2022-12-18T12:00:59;9.40;55.80
41116;DHT22;26861;51.824;4.682;2022-12-18T12:09:11;9.30;55.50
41116;DHT22;26861;51.824;4.682;2022-12-18T12:14:21;9.30;55.60
41116;DHT22;26861;51.824;4.682;2022-12-18T12:17:09;9.30;55.50
41116;DHT22;26861;51.824;4.682;2022-12-18T12:25:52;9.30;55.40
41116;DHT22;26861;51.824;4.682;2022-12-18T12:37:11;9.50;55.80
41116;DHT22;26861;51.824;4.682;2022-12-18T12:39:41;9.40;55.70
41116;DHT22;26861;51.824;4.682;2022-12-18T12:42:41;9.40;55.70
41116;DHT22;26861;51.824;4.682;2022-12-18T12:45:33;9.40;55.70
41116;DHT22;26861;51.824;4.682;2022-12-18T12:48:02;9.40;55.80
41116;DHT22;26861;51.824;4.682;2022-12-18T12:50:33;9.40;55.70
41116;DHT22;26861;51.824;4.682;2022-12-18T12:53:01;9.30;55.70
41116;DHT22;26861;51.824;4.682;2022-12-18T12:55:30;9.60;56.00
41116;DHT22;26861;51.824;4.682;2022-12-18T12:58:23;10.00;56.60
41116;DHT22;26861;51.824;4.682;2022-12-18T13:03:48;9.40;55.80
41116;DHT22;26861;51.824;4.682;2022-12-18T13:08:58;9.50;55.80
41116;DHT22;26861;51.824;4.682;2022-12-18T13:11:42;9.40;55.80
41116;DHT22;26861;51.824;4.682;2022-12-18T13:14:36;9.40;55.80
41116;DHT22;26861;51.824;4.682;2022-12-18T13:22:51;9.40;55.80
41116;DHT22;26861;51.824;4.682;2022-12-18T13:25:35;9.40;55.80
41116;DHT22;26861;51.824;4.682;2022-12-18T13:28:05;9.50;55.90
41116;DHT22;26861;51.824;4.682;2022-12-18T13:38:36;9.50;55.90
41116;DHT22;26861;51.824;4.682;2022-12-18T13:51:33;9.50;55.90
41116;DHT22;26861;51.824;4.682;2022-12-18T13:56:43;9.50;55.90
41116;DHT22;26861;51.824;4.682;2022-12-18T14:01:58;9.50;55.90
41116;DHT22;26861;51.824;4.682;2022-12-18T14:04:27;9.50;55.90
41116;DHT22;26861;51.824;4.682;2022-12-18T14:06:57;9.60;55.90
41116;DHT22;26861;51.824;4.682;2022-12-18T14:09:30;9.60;55.90
41116;DHT22;26861;51.824;4.682;2022-12-18T14:11:57;9.50;55.80
41116;DHT22;26861;51.824;4.682;2022-12-18T14:14:47;9.60;55.90
41116;DHT22;26861;51.824;4.682;2022-12-18T14:17:15;9.50;55.90
41116;DHT22;26861;51.824;4.682;2022-12-18T14:19:45;9.50;73.90
41116;DHT22;26861;51.824;4.682;2022-12-18T14:22:16;9.60;55.90
41116;DHT22;26861;51.824;4.682;2022-12-18T14:24:42;9.50;55.80
41116;DHT22;26861;51.824;4.682;2022-12-18T14:27:25;9.50;55.80
41116;DHT22;26861;51.824;4.682;2022-12-18T14:29:51;9.60;55.80
41116;DHT22;26861;51.824;4.682;2022-12-18T14:32:20;9.60;57.20
41116;DHT22;26861;51.824;4.682;2022-12-18T14:34:51;9.60;55.30
41116;DHT22;26861;51.824;4.682;2022-12-18T14:37:20;9.60;73.60
41116;DHT22;26861;51.824;4.682;2022-12-18T14:39:58;9.50;55.80
41116;DHT22;26861;51.824;4.682;2022-12-18T14:42:26;9.70;55.90
41116;DHT22;26861;51.824;4.682;2022-12-18T14:47:58;9.60;55.90
41116;DHT22;26861;51.824;4.682;2022-12-18T14:50:23;9.60;56.20
41116;DHT22;26861;51.824;4.682;2022-12-18T14:52:49;9.60;56.00
41116;DHT22;26861;51.824;4.682;2022-12-18T14:55:16;9.60;55.30
41116;DHT22;26861;51.824;4.682;2022-12-18T14:57:42;9.60;55.90
41116;DHT22;26861;51.824;4.682;2022-12-18T15:00:18;9.60;56.00
41116;DHT22;26861;51.824;4.682;2022-12-18T15:02:53;9.70;55.80
41116;DHT22;26861;51.824;4.682;2022-12-18T15:05:28;9.80;55.80
41116;DHT22;26861;51.824;4.682;2022-12-18T15:07:56;9.70;55.70
41116;DHT22;26861;51.824;4.682;2022-12-18T15:10:28;9.70;55.60
41116;DHT22;26861;51.824;4.682;2022-12-18T15:17:59;9.70;55.70
41116;DHT22;26861;51.824;4.682;2022-12-18T15:20:25;9.70;55.50
41116;DHT22;26861;51.824;4.682;2022-12-18T15:22:52;9.80;55.60
41116;DHT22;26861;51.824;4.682;2022-12-18T15:25:29;9.70;55.60
41116;DHT22;26861;51.824;4.682;2022-12-18T15:27:55;9.70;55.60
41116;DHT22;26861;51.824;4.682;2022-12-18T15:30:22;9.70;55.00
41116;DHT22;26861;51.824;4.682;2022-12-18T15:32:48;9.70;55.50
41116;DHT22;26861;51.824;4.682;2022-12-18T15:35:25;9.70;56.20
41116;DHT22;26861;51.824;4.682;2022-12-18T15:37:51;9.70;55.50
41116;DHT22;26861;51.824;4.682;2022-12-18T15:40:20;9.70;55.60
41116;DHT22;26861;51.824;4.682;2022-12-18T15:42:46;9.70;55.50
41116;DHT22;26861;51.824;4.682;2022-12-18T15:45:31;9.70;55.40
41116;DHT22;26861;51.824;4.682;2022-12-18T15:47:57;9.80;55.60
41116;DHT22;26861;51.824;4.682;2022-12-18T15:50:23;9.50;55.20
41116;DHT22;26861;51.824;4.682;2022-12-18T15:52:49;9.70;55.20
41116;DHT22;26861;51.824;4.682;2022-12-18T15:55:19;9.70;55.00
41116;DHT22;26861;51.824;4.682;2022-12-18T15:58:04;9.70;55.00
41116;DHT22;26861;51.824;4.682;2022-12-18T16:00:30;9.70;54.90
41116;DHT22;26861;51.824;4.682;2022-12-18T16:02:55;9.80;54.80
41116;DHT22;26861;51.824;4.682;2022-12-18T16:05:22;9.80;55.00
41116;DHT22;26861;51.824;4.682;2022-12-18T16:07:48;9.80;54.90
41116;DHT22;26861;51.824;4.682;2022-12-18T16:10:14;9.70;54.80
41116;DHT22;26861;51.824;4.682;2022-12-18T16:12:40;9.70;54.70
41116;DHT22;26861;51.824;4.682;2022-12-18T16:15:07;9.70;54.80
41116;DHT22;26861;51.824;4.682;2022-12-18T16:17:33;9.70;54.70
41116;DHT22;26861;51.824;4.682;2022-12-18T16:19:59;9.70;54.70
41116;DHT22;26861;51.824;4.682;2022-12-18T16:22:30;9.70;54.70
41116;DHT22;26861;51.824;4.682;2022-12-18T16:24:57;9.60;70.10
41116;DHT22;26861;51.824;4.682;2022-12-18T16:27:23;9.60;54.50
41116;DHT22;26861;51.824;4.682;2022-12-18T16:29:50;9.70;54.60
41116;DHT22;26861;51.824;4.682;2022-12-18T16:32:20;9.70;54.50
41116;DHT22;26861;51.824;4.682;2022-12-18T16:34:46;9.70;54.50
41116;DHT22;26861;51.824;4.682;2022-12-18T16:37:13;9.60;54.60
41116;DHT22;26861;51.824;4.682;2022-12-18T16:39:40;9.70;54.30
41116;DHT22;26861;51.824;4.682;2022-12-18T16:42:17;9.70;54.40
41116;DHT22;26861;51.824;4.682;2022-12-18T16:44:45;9.70;54.40
41116;DHT22;26861;51.824;4.682;2022-12-18T16:47:11;9.70;54.20
41116;DHT22;26861;51.824;4.682;2022-12-18T16:49:37;9.60;54.30
41116;DHT22;26861;51.824;4.682;2022-12-18T16:52:04;9.70;54.30
41116;DHT22;26861;51.824;4.682;2022-12-18T16:54:30;9.70;54.30
41116;DHT22;26861;51.824;4.682;2022-12-18T16:56:57;9.60;54.20
41116;DHT22;26861;51.824;4.682;2022-12-18T16:59:25;9.70;54.90
41116;DHT22;26861;51.824;4.682;2022-12-18T17:01:51;9.70;55.20
41116;DHT22;26861;51.824;4.682;2022-12-18T17:04:17;9.80;55.20
41116;DHT22;26861;51.824;4.682;2022-12-18T17:06:44;9.70;55.40
41116;DHT22;26861;51.824;4.682;2022-12-18T17:09:13;9.60;55.30
41116;DHT22;26861;51.824;4.682;2022-12-18T17:11:40;9.70;55.30
41116;DHT22;26861;51.824;4.682;2022-12-18T17:14:11;9.70;55.40
41116;DHT22;26861;51.824;4.682;2022-12-18T17:16:38;9.70;55.20
41116;DHT22;26861;51.824;4.682;2022-12-18T17:19:03;9.80;73.30
41116;DHT22;26861;51.824;4.682;2022-12-18T17:21:29;9.70;55.10
41116;DHT22;26861;51.824;4.682;2022-12-18T17:23:55;10.20;55.10
41116;DHT22;26861;51.824;4.682;2022-12-18T17:26:20;9.70;54.90
41116;DHT22;26861;51.824;4.682;2022-12-18T17:28:46;10.10;55.10
41116;DHT22;26861;51.824;4.682;2022-12-18T17:31:18;9.80;54.90
41116;DHT22;26861;51.824;4.682;2022-12-18T17:33:44;9.60;54.90
41116;DHT22;26861;51.824;4.682;2022-12-18T17:38:36;9.60;54.30
41116;DHT22;26861;51.824;4.682;2022-12-18T17:41:06;9.70;55.00
41116;DHT22;26861;51.824;4.682;2022-12-18T17:43:33;9.70;54.90
41116;DHT22;26861;51.824;4.682;2022-12-18T17:46:05;9.60;54.80
41116;DHT22;26861;51.824;4.682;2022-12-18T17:48:32;9.60;85.40
41116;DHT22;26861;51.824;4.682;2022-12-18T17:51:02;9.80;54.80
41116;DHT22;26861;51.824;4.682;2022-12-18T17:53:28;10.50;59.70
41116;DHT22;26861;51.824;4.682;2022-12-18T17:55:55;9.90;56.50
41116;DHT22;26861;51.824;4.682;2022-12-18T17:58:21;10.00;56.40
41116;DHT22;26861;51.824;4.682;2022-12-18T18:00:47;9.80;55.10
41116;DHT22;26861;51.824;4.682;2022-12-18T18:03:13;9.80;55.00
41116;DHT22;26861;51.824;4.682;2022-12-18T18:05:39;9.80;54.60
41116;DHT22;26861;51.824;4.682;2022-12-18T18:08:05;9.80;54.60
41116;DHT22;26861;51.824;4.682;2022-12-18T18:10:30;9.90;54.50
41116;DHT22;26861;51.824;4.682;2022-12-18T18:12:57;9.80;54.40
41116;DHT22;26861;51.824;4.682;2022-12-18T18:15:41;9.80;54.40
41116;DHT22;26861;51.824;4.682;2022-12-18T18:18:07;9.80;54.40
41116;DHT22;26861;51.824;4.682;2022-12-18T18:20:37;9.70;54.30
41116;DHT22;26861;51.824;4.682;2022-12-18T18:23:03;9.70;54.50